Map

Track Data

SID SEASON NUMBER BASIN SUBBASIN NAME ISO_TIME NATURE LAT LON WMO_WIND WMO_PRES WMO_AGENCY TRACK_TYPE DIST2LAND LANDFALL IFLAG USA_AGENCY USA_ATCF_ID USA_LAT USA_LON USA_RECORD USA_STATUS USA_WIND USA_PRES USA_SSHS USA_R34_NE USA_R34_SE USA_R34_SW USA_R34_NW USA_R50_NE USA_R50_SE USA_R50_SW USA_R50_NW USA_R64_NE USA_R64_SE USA_R64_SW USA_R64_NW USA_POCI USA_ROCI USA_RMW USA_EYE TOKYO_LAT TOKYO_LON TOKYO_GRADE TOKYO_WIND TOKYO_PRES TOKYO_R50_DIR TOKYO_R50_LONG TOKYO_R50_SHORT TOKYO_R30_DIR TOKYO_R30_LONG TOKYO_R30_SHORT TOKYO_LAND CMA_LAT CMA_LON CMA_CAT CMA_WIND CMA_PRES HKO_LAT HKO_LON HKO_CAT HKO_WIND HKO_PRES NEWDELHI_LAT NEWDELHI_LON NEWDELHI_GRADE NEWDELHI_WIND NEWDELHI_PRES NEWDELHI_CI NEWDELHI_DP NEWDELHI_POCI REUNION_LAT REUNION_LON REUNION_TYPE REUNION_WIND REUNION_PRES REUNION_TNUM REUNION_CI REUNION_RMW REUNION_R34_NE REUNION_R34_SE REUNION_R34_SW REUNION_R34_NW REUNION_R50_NE REUNION_R50_SE REUNION_R50_SW REUNION_R50_NW REUNION_R64_NE REUNION_R64_SE REUNION_R64_SW REUNION_R64_NW BOM_LAT BOM_LON BOM_TYPE BOM_WIND BOM_PRES BOM_TNUM BOM_CI BOM_RMW BOM_R34_NE BOM_R34_SE BOM_R34_SW BOM_R34_NW BOM_R50_NE BOM_R50_SE BOM_R50_SW BOM_R50_NW BOM_R64_NE BOM_R64_SE BOM_R64_SW BOM_R64_NW BOM_ROCI BOM_POCI BOM_EYE BOM_POS_METHOD BOM_PRES_METHOD NADI_LAT NADI_LON NADI_CAT NADI_WIND NADI_PRES WELLINGTON_LAT WELLINGTON_LON WELLINGTON_WIND WELLINGTON_PRES DS824_LAT DS824_LON DS824_STAGE DS824_WIND DS824_PRES TD9636_LAT TD9636_LON TD9636_STAGE TD9636_WIND TD9636_PRES TD9635_LAT TD9635_LON TD9635_WIND TD9635_PRES TD9635_ROCI NEUMANN_LAT NEUMANN_LON NEUMANN_CLASS NEUMANN_WIND NEUMANN_PRES MLC_LAT MLC_LON MLC_CLASS MLC_WIND MLC_PRES USA_GUST BOM_GUST BOM_GUST_PER REUNION_GUST REUNION_GUST_PER USA_SEAHGT USA_SEARAD_NE USA_SEARAD_SE USA_SEARAD_SW USA_SEARAD_NW STORM_SPEED STORM_DIR
1891316N12127 1891 58 WP MM NOT_NAMED 1891-11-11 16:00:00 NR 12.2000 127.300 main 195 174 __________O___ -1 12.2000 127.300 7 6 288
1891316N12127 1891 58 WP MM NOT_NAMED 1891-11-11 18:00:00 NR 12.2603 127.107 main 174 141 __________P___ -1 12.2603 127.107 7 6 288
1891316N12127 1891 58 WP MM NOT_NAMED 1891-11-11 21:00:00 NR 12.3530 126.809 main 143 110 __________P___ -1 12.3530 126.809 7 6 288
1891316N12127 1891 58 WP MM NOT_NAMED 1891-11-12 00:00:00 NR 12.4519 126.488 main 113 79 __________P___ -1 12.4519 126.488 7 7 287
1891316N12127 1891 58 WP MM NOT_NAMED 1891-11-12 03:00:00 NR 12.5608 126.130 main 79 70 __________P___ -1 12.5608 126.130 7 7 287
1891316N12127 1891 58 WP MM NOT_NAMED 1891-11-12 04:00:00 NR 12.6000 126.000 main 70 54 __________O___ -1 12.6000 126.000 3 8 287
1891316N12127 1891 58 WP MM NOT_NAMED 1891-11-12 06:00:00 NR 12.6829 125.723 main 54 35 __________P___ -1 12.6829 125.723 3 9 287
1891316N12127 1891 58 WP MM NOT_NAMED 1891-11-12 09:00:00 NR 12.8135 125.269 main 35 33 __________P___ -1 12.8135 125.269 3 10 286
1891316N12127 1891 58 WP MM NOT_NAMED 1891-11-12 12:00:00 NR 12.9436 124.782 main 46 24 __________P___ -1 12.9436 124.782 3 10 284
1891316N12127 1891 58 WP MM NOT_NAMED 1891-11-12 15:00:00 NR 13.0637 124.272 main 24 11 __________P___ -1 13.0637 124.272 3 10 283
1891316N12127 1891 58 WP MM NOT_NAMED 1891-11-12 16:00:00 NR 13.1000 124.100 main 11 0 __________O___ -1 13.1000 124.100 4 10 281
1891316N12127 1891 58 WP MM NOT_NAMED 1891-11-12 18:00:00 NR 13.1614 123.756 main 0 0 __________P___ -1 13.1614 123.756 4 10 279
1891316N12127 1891 58 WP MM NOT_NAMED 1891-11-12 21:00:00 NR 13.2409 123.227 main 10 0 __________P___ -1 13.2409 123.227 4 10 278
1891316N12127 1891 58 WP MM NOT_NAMED 1891-11-13 00:00:00 NR 13.3108 122.695 main 0 0 __________P___ -1 13.3108 122.695 4 10 278
1891316N12127 1891 58 WP MM NOT_NAMED 1891-11-13 03:00:00 NR 13.3774 122.171 main 24 31 __________P___ -1 13.3774 122.171 4 10 278
1891316N12127 1891 58 WP MM NOT_NAMED 1891-11-13 04:00:00 NR 13.4000 122.000 main 39 39 __________O___ -1 13.4000 122.000 4 10 278
1891316N12127 1891 58 WP MM NOT_NAMED 1891-11-13 06:00:00 NR 13.4443 121.680 main 39 11 __________P___ -1 13.4443 121.680 4 9 278
1891316N12127 1891 58 WP MM NOT_NAMED 1891-11-13 09:00:00 NR 13.5110 121.212 main 11 10 __________P___ -1 13.5110 121.212 4 9 279
1891316N12127 1891 58 WP MM NOT_NAMED 1891-11-13 12:00:00 NR 13.5835 120.746 main 22 22 __________P___ -1 13.5835 120.746 4 9 280
1891316N12127 1891 58 WP MM NOT_NAMED 1891-11-13 15:00:00 NR 13.6681 120.266 main 33 35 __________P___ -1 13.6681 120.266 4 10 281
1891316N12127 1891 58 WP MM NOT_NAMED 1891-11-13 16:00:00 NR 13.7000 120.100 main 39 39 __________O___ -1 13.7000 120.100 4 10 283
1891316N12127 1891 58 WP MM NOT_NAMED 1891-11-13 18:00:00 NR 13.7796 119.756 main 70 78 __________P___ -1 13.7796 119.756 4 11 284
1891316N12127 1891 58 WP MM NOT_NAMED 1891-11-13 21:00:00 NR 13.9119 119.221 main 131 131 __________P___ -1 13.9119 119.221 4 11 284
1891316N12127 1891 58 WP MM NOT_NAMED 1891-11-14 00:00:00 NR 14.0458 118.666 main 175 179 __________P___ -1 14.0458 118.666 4 11 283
1891316N12127 1891 58 WP MM NOT_NAMED 1891-11-14 03:00:00 NR 14.1658 118.094 main 225 225 __________P___ -1 14.1658 118.094 4 11 282
1891316N12127 1891 58 WP MM NOT_NAMED 1891-11-14 04:00:00 NR 14.2000 117.900 main 246 246 __________O___ -1 14.2000 117.900 4 11 279
1891316N12127 1891 58 WP MM NOT_NAMED 1891-11-14 06:00:00 NR 14.2555 117.514 main 285 285 __________P___ -1 14.2555 117.514 4 11 277
1891316N12127 1891 58 WP MM NOT_NAMED 1891-11-14 09:00:00 NR 14.3200 116.922 main 345 345 __________P___ -1 14.3200 116.922 4 12 275
1891316N12127 1891 58 WP MM NOT_NAMED 1891-11-14 12:00:00 NR 14.3650 116.319 main 402 402 __________P___ -1 14.3650 116.319 4 12 274
1891316N12127 1891 58 WP MM NOT_NAMED 1891-11-14 15:00:00 NR 14.3936 115.706 main 465 465 __________P___ -1 14.3936 115.706 4 12 273
1891316N12127 1891 58 WP MM NOT_NAMED 1891-11-14 16:00:00 NR 14.4000 115.500 main 485 485 __________O___ -1 14.4000 115.500 4 12 272
1891316N12127 1891 58 WP MM NOT_NAMED 1891-11-14 18:00:00 NR 14.4136 115.094 main 525 525 __________P___ -1 14.4136 115.094 4 12 271
1891316N12127 1891 58 WP MM NOT_NAMED 1891-11-14 21:00:00 NR 14.4218 114.479 main 563 499 __________P___ -1 14.4218 114.479 4 12 270
1891316N12127 1891 58 WP MM NOT_NAMED 1891-11-15 00:00:00 NR 14.4180 113.854 main 499 424 __________P___ -1 14.4180 113.854 4 12 269
1891316N12127 1891 58 WP MM NOT_NAMED 1891-11-15 03:00:00 NR 14.4056 113.216 main 424 403 __________P___ -1 14.4056 113.216 4 12 269
1891316N12127 1891 58 WP MM NOT_NAMED 1891-11-15 04:00:00 NR 14.4000 113.000 main 403 360 __________O___ -1 14.4000 113.000 4 12 269
1891316N12127 1891 58 WP MM NOT_NAMED 1891-11-15 06:00:00 NR 14.3990 112.572 main 360 286 __________P___ -1 14.3990 112.572 4 13 270
1891316N12127 1891 58 WP MM NOT_NAMED 1891-11-15 09:00:00 NR 14.3918 111.918 main 286 212 __________P___ -1 14.3918 111.918 4 13 269
1891316N12127 1891 58 WP MM NOT_NAMED 1891-11-15 12:00:00 NR 14.3694 111.243 main 212 137 __________P___ -1 14.3694 111.243 4 13 267
1891316N12127 1891 58 WP MM NOT_NAMED 1891-11-15 15:00:00 NR 14.3226 110.541 main 137 116 __________P___ -1 14.3226 110.541 4 14 266
1891316N12127 1891 58 WP MM NOT_NAMED 1891-11-15 16:00:00 NR 14.3000 110.300 main 116 63 __________O___ -1 14.3000 110.300 4 14 264
1891316N12127 1891 58 WP MM NOT_NAMED 1891-11-15 18:00:00 NR 14.2430 109.807 main 63 0 __________P___ -1 14.2430 109.807 4 15 262
1891316N12127 1891 58 WP MM NOT_NAMED 1891-11-15 21:00:00 NR 14.1322 109.043 main 0 0 __________P___ -1 14.1322 109.043 4 15 261
1891316N12127 1891 58 WP MM NOT_NAMED 1891-11-16 00:00:00 NR 13.9987 108.260 main 0 0 __________P___ -1 13.9987 108.260 4 16 260
1891316N12127 1891 58 WP MM NOT_NAMED 1891-11-16 03:00:00 NR 13.8509 107.466 main 0 0 __________P___ -1 13.8509 107.466 4 16 259
1891316N12127 1891 58 WP MM NOT_NAMED 1891-11-16 04:00:00 NR 13.8000 107.200 main 0 __________O___ -1 13.8000 107.200 7 16 259

Digital Typhoon Data and Search

About IBTrACS Database

This database is a web-friendly format of International Best Track Archive for Climate Stewardship (IBTrACS), a global best track data archive curated by NOAA dating back to 1842.

Updated: 2021-12-01